Atlantic Horizon — C6XI2 — position and weather

sailwx.info

Track history (hours):
 
Tides and Currents Weather Stations Pressure Air Temp Water Temp Dewpoint Dewpoint Depression Visibility Wind Speed Wind Dir Waves Ship Positions

Atlantic Horizon

Last reported at 2016-May-30 00:23 UTC. Time now 2016-May-30 16:30 UTC.
Position S 40°41' E 145°29'.

Length 225 m; draft 8.2 m.

Type: Cargo ship. MMSI: 311010300.

Date/timePositionNaut miles runAvg speedWind from/ knotsBaromVisibWave heightAir tempDewpointWater temp
2016-May-30 00:23S 40°41' E 145°29'77 8.8
2016-May-29 15:33S 39°29' E 146°07'1212.3
2016-May-29 14:34S 39°18' E 146°13'1111.0
2016-May-29 13:33S 39°11' E 146°23'1212.1
2016-May-29 12:33S 39°06' E 146°38'1211.7
2016-May-29 11:34S 39°03' E 146°52'1111.4
2016-May-29 10:33S 38°60' E 147°06'1111.0
2016-May-29 09:33S 38°56' E 147°20'7211.2
2016-May-29 03:10S 38°28' E 148°44'1211.1
2016-May-29 02:05S 38°21' E 148°57'610.9
2016-May-29 01:33S 38°17' E 149°03'1010.5
2016-May-29 00:33S 38°11' E 149°13'1010.4
2016-May-28 23:34S 38°05' E 149°24'10 9.7
2016-May-28 22:33S 37°59' E 149°34'10 9.6
2016-May-28 21:33S 37°53' E 149°43'10 9.6
2016-May-28 20:33S 37°48' E 149°53'1010.3
2016-May-28 19:33S 37°42' E 150°04'1110.7
2016-May-28 18:33S 37°35' E 150°15'1110.7
2016-May-28 17:33S 37°28' E 150°25'1111.2
2016-May-28 16:33S 37°18' E 150°30'1111.3
2016-May-28 15:33S 37°07' E 150°35'1111.0
2016-May-28 14:33S 36°57' E 150°40'1110.7
2016-May-28 13:34S 36°47' E 150°45'1110.6
2016-May-28 12:33S 36°37' E 150°49'1210.6
2016-May-28 11:25S 36°26' E 150°55'20410.8
2016-May-27 16:33S 33°15' E 152°24'9 8.6
2016-May-27 15:31S 33°07' E 152°28'9 8.9
2016-May-27 14:32S 32°59' E 152°32'9 9.0
2016-May-27 13:33S 32°50' E 152°36'9 9.3
2016-May-27 12:34S 32°42' E 152°39'10 9.8
2016-May-27 11:34S 32°32' E 152°43'  
Track history (hours):
 
Tides and Currents Weather Stations Pressure Air Temp Water Temp Dewpoint Dewpoint Depression Visibility Wind Speed Wind Dir Waves Ship Positions

Atlantic Horizon

Last reported at 2016-May-30 00:23 UTC. Time now 2016-May-30 16:30 UTC.
Position S 40°41' E 145°29'.

Length 225 m; draft 8.2 m.

Type: Cargo ship. MMSI: 311010300.

Date/timePositionNaut miles runAvg speedWind from/ knotsBaromVisibWave heightAir tempDewpointWater temp
2016-May-30 00:23S 40°41' E 145°29'77 8.8
2016-May-29 15:33S 39°29' E 146°07'1212.3
2016-May-29 14:34S 39°18' E 146°13'1111.0
2016-May-29 13:33S 39°11' E 146°23'1212.1
2016-May-29 12:33S 39°06' E 146°38'1211.7
2016-May-29 11:34S 39°03' E 146°52'1111.4
2016-May-29 10:33S 38°60' E 147°06'1111.0
2016-May-29 09:33S 38°56' E 147°20'7211.2
2016-May-29 03:10S 38°28' E 148°44'1211.1
2016-May-29 02:05S 38°21' E 148°57'610.9
2016-May-29 01:33S 38°17' E 149°03'1010.5
2016-May-29 00:33S 38°11' E 149°13'1010.4
2016-May-28 23:34S 38°05' E 149°24'10 9.7
2016-May-28 22:33S 37°59' E 149°34'10 9.6
2016-May-28 21:33S 37°53' E 149°43'10 9.6
2016-May-28 20:33S 37°48' E 149°53'1010.3
2016-May-28 19:33S 37°42' E 150°04'1110.7
2016-May-28 18:33S 37°35' E 150°15'1110.7
2016-May-28 17:33S 37°28' E 150°25'1111.2
2016-May-28 16:33S 37°18' E 150°30'1111.3
2016-May-28 15:33S 37°07' E 150°35'1111.0
2016-May-28 14:33S 36°57' E 150°40'1110.7
2016-May-28 13:34S 36°47' E 150°45'1110.6
2016-May-28 12:33S 36°37' E 150°49'1210.6
2016-May-28 11:25S 36°26' E 150°55'20410.8
2016-May-27 16:33S 33°15' E 152°24'9 8.6
2016-May-27 15:31S 33°07' E 152°28'9 8.9
2016-May-27 14:32S 32°59' E 152°32'9 9.0
2016-May-27 13:33S 32°50' E 152°36'9 9.3
2016-May-27 12:34S 32°42' E 152°39'10 9.8
2016-May-27 11:34S 32°32' E 152°43'  

Dump ship's entire track history